Kezdőlap
METAR-TAF:

METAR-TAF

Repülőterek :

Lárnaka, Ciprus

földrajzi szélesség: 34-53N, földrajzi hosszúság: 033-38E, magasság: 2 m

Jelenlegi meteorológiai megfigyelések

A jelentés 7 perccel ezelõtt készült, 01:00 UTC
Észak-északnyugati szél 4 kt
Hőmérséklet 14°C
Páratartalom 72%
Légköri nyomás 1014 hPa
Látótávolság 10 km, vagy több
felhőtlen 1500 m magasságban, és nincs gomolyfelhõ

METAR: LCLK 240100Z 33004KT CAVOK 14/09 Q1014 NOSIG

Idő: 04:07 (01:07 UTC)

Előrejelzés

A jelentés 1 órával és 37 perccel ezelõtt készült, 23:30 UTC
Az előrejelzés 24-én 00 óra UTC és 24-én 24 óra UTC között érvényes
Északnyugati szél 6 kt
Látótávolság 10 km, vagy több
Kevés felhő 3000 lábon
24-én 09 óra UTC és 24-én 12 óra UTC között fokozatosan kialakuló
Délkeleti szél 10 kt
24-én 16 óra UTC és 24-én 20 óra UTC között fokozatosan kialakuló
Északi szél 10 kt

TAF: LCLK 232330Z 2400/2424 31006KT 9999 FEW030 BECMG 2409/2412 13010KT BECMG 2416/2420 35010KT

Meteorológiai megfigyelések és előrejelzések több, mint 4000 repülőtéren (METAR és TAF jelentéseket).

A térképen piros és sárga pontok jelzik az elérhető meteorológiai állomásokat.

Mozgassa az egeret a pont fölött, hogy megjelenjen az állomás neve.

Azután kattintson az időjárási megfigyelések és előrejelzések megtekintéséhez.

A térkép megváltoztatása: kattintson a fekete keresztel jelölt zöld gombra ráközelítéshez, a vonallal jelölt zöld gombra távolításhoz, vagy a zöld nyilakra a szomszédos térképek eléréséhez.


METAR-TAF: